Search for airport 
image banner adimage banner adimage banner ad
image banner ad

KOTM - Ottumwa Rgnl

Located in Ottumwa, United States

ICAO - OTM, IATA - OTM

Data provided by Airmate  

General information

Coordinates: N41°6'26" W92°26'49"
Elevation is 845 feet MSL.
Magnetic variation is 03° East
View others Airports in Iowa

Operational data

Special qualification required
Current time UTC:
Current local time:
Weather
METAR: KOTM 181853Z AUTO 22005KT 10SM FEW110 28/22 A2987 RMK AO2 SLP105 T02830222
TAF: KOTM 181724Z 1818/1918 VRB06KT P6SM VCSH SCT120 BKN200 FM182100 12005KT P6SM BKN200 FM190200 10004KT P6SM VCTS SCT070CB BKN100 TEMPO 1903/1907 VRB15G30KT 3SM TSRA BR BKN050CB FM191000 30005KT P6SM SCT250
View NOTAMs / SUP AIP / TFR affecting this airport [VIEW]
Communications frequencies: [VIEW]

Runways:

RWY identifierQFULength (ft)Width (ft)SurfaceLDA (ft)
0445°4600100OTHER
22225°4600100OTHER
13135°5885150CONC
31315°5885150CONC

Airport contact information

Address: Ottumwa United States

Other aviation service providers

Flight schools

Archangel Services, Llc

Archangel Services, Llc

Satellite view of KOTM